createdAt,value
2018-12-26T00:00:51.887Z,5.86
2018-12-26T00:01:51.876Z,5.88
2018-12-26T00:02:51.868Z,5.92
2018-12-26T00:03:51.856Z,5.85
2018-12-26T00:04:51.842Z,5.88
2018-12-26T00:05:51.832Z,5.88
2018-12-26T00:06:51.821Z,5.83
2018-12-26T00:07:51.809Z,5.95
2018-12-26T00:08:51.808Z,5.95
2018-12-26T00:09:51.788Z,5.91
2018-12-26T00:10:51.777Z,5.95
2018-12-26T00:11:51.766Z,5.83
2018-12-26T00:12:51.755Z,5.96
2018-12-26T00:13:51.744Z,5.88
2018-12-26T00:14:51.732Z,5.92
2018-12-26T00:15:51.723Z,5.89
2018-12-26T00:16:51.714Z,5.96
2018-12-26T00:17:51.701Z,5.93
2018-12-26T00:18:51.690Z,5.92
2018-12-26T00:19:51.812Z,5.96
2018-12-26T00:20:51.667Z,5.92
2018-12-26T00:21:51.657Z,5.96
2018-12-26T00:22:51.644Z,5.96
2018-12-26T00:23:51.655Z,5.98
2018-12-26T00:24:51.622Z,5.88
2018-12-26T00:25:51.612Z,5.93
2018-12-26T00:26:51.601Z,6.03
2018-12-26T00:27:51.596Z,5.96
2018-12-26T00:28:51.578Z,5.93
2018-12-26T00:29:51.567Z,5.96
2018-12-26T00:30:51.556Z,6.04
2018-12-26T00:31:51.545Z,5.92
2018-12-26T00:32:51.537Z,6.03
2018-12-26T00:33:51.525Z,5.95
2018-12-26T00:34:51.512Z,5.98
2018-12-26T00:35:51.504Z,6.04
2018-12-26T00:36:51.490Z,6.01
2018-12-26T00:37:51.479Z,6.00
2018-12-26T00:38:51.467Z,6.04
2018-12-26T00:39:51.456Z,6.06
2018-12-26T00:40:51.445Z,6.06
2018-12-26T00:41:51.435Z,6.06
2018-12-26T00:42:51.423Z,6.06
2018-12-26T00:43:51.412Z,6.04
2018-12-26T00:44:51.406Z,6.01
2018-12-26T00:45:51.391Z,6.04
2018-12-26T00:46:51.380Z,6.01
2018-12-26T00:47:51.369Z,6.03
2018-12-26T00:48:51.360Z,6.07
2018-12-26T00:49:51.346Z,6.03
2018-12-26T00:50:51.341Z,6.01
2018-12-26T00:51:51.331Z,6.04
2018-12-26T00:52:51.313Z,6.07
2018-12-26T00:53:51.302Z,6.06
2018-12-26T00:54:51.291Z,6.09
2018-12-26T00:55:51.283Z,6.03
2018-12-26T00:56:51.270Z,5.98
2018-12-26T00:57:51.259Z,6.07
2018-12-26T00:58:51.247Z,6.06
2018-12-26T00:59:51.236Z,6.03
2018-12-26T01:00:51.225Z,6.00
2018-12-26T01:01:51.215Z,5.95
2018-12-26T01:02:51.205Z,5.96
2018-12-26T01:03:51.267Z,6.07
2018-12-26T01:04:51.182Z,6.07
2018-12-26T01:05:51.171Z,5.95
2018-12-26T01:06:51.162Z,6.07
2018-12-26T01:07:51.148Z,6.09
2018-12-26T01:08:51.137Z,5.96
2018-12-26T01:09:51.129Z,6.09
2018-12-26T01:10:51.115Z,6.03
2018-12-26T01:11:51.104Z,6.09
2018-12-26T01:12:51.096Z,6.11
2018-12-26T01:13:51.084Z,6.09
2018-12-26T01:14:51.071Z,5.96
2018-12-26T01:15:51.060Z,6.10
2018-12-26T01:16:51.051Z,6.11
2018-12-26T01:17:51.040Z,5.98
2018-12-26T01:18:51.028Z,6.10
2018-12-26T01:19:51.018Z,6.11
2018-12-26T01:20:51.005Z,6.13
2018-12-26T01:21:50.994Z,6.13
2018-12-26T01:22:50.981Z,6.10
2018-12-26T01:23:50.972Z,6.03
2018-12-26T01:24:50.962Z,6.10
2018-12-26T01:25:50.950Z,6.13
2018-12-26T01:26:50.939Z,6.16
2018-12-26T01:27:50.927Z,6.10
2018-12-26T01:28:50.916Z,6.18
2018-12-26T01:29:50.905Z,6.18
2018-12-26T01:31:10.531Z,6.11
2018-12-26T01:32:32.433Z,6.14
2018-12-26T01:33:32.422Z,6.11
2018-12-26T01:35:14.454Z,6.07
2018-12-26T01:36:14.442Z,6.09
2018-12-26T01:37:14.432Z,6.13
2018-12-26T01:38:14.420Z,6.13
2018-12-26T01:39:14.410Z,6.10
2018-12-26T01:40:14.397Z,6.07
2018-12-26T01:41:14.386Z,6.06
2018-12-26T01:42:14.375Z,6.16
2018-12-26T01:43:14.366Z,6.09
2018-12-26T01:44:14.360Z,6.09
2018-12-26T01:45:14.343Z,6.07
2018-12-26T01:46:14.333Z,6.11
2018-12-26T01:47:14.319Z,6.16
2018-12-26T01:48:14.308Z,6.13
2018-12-26T01:49:14.297Z,6.11
2018-12-26T01:50:14.286Z,6.14
2018-12-26T01:51:14.277Z,6.01
2018-12-26T01:52:14.266Z,6.07
2018-12-26T01:53:14.253Z,6.09
2018-12-26T01:54:14.242Z,6.14
2018-12-26T01:55:14.231Z,6.07
2018-12-26T01:56:14.220Z,6.04
2018-12-26T01:57:33.857Z,6.13
2018-12-26T01:58:55.745Z,6.10
2018-12-26T01:59:55.732Z,6.06
2018-12-26T02:01:37.273Z,6.07
2018-12-26T02:02:37.260Z,6.09
2018-12-26T02:04:19.291Z,6.13
2018-12-26T02:05:19.278Z,6.04
2018-12-26T02:06:19.271Z,6.06
2018-12-26T02:07:19.257Z,6.13
2018-12-26T02:08:19.246Z,6.07
2018-12-26T02:09:19.235Z,6.16
2018-12-26T02:10:19.224Z,6.16
2018-12-26T02:11:19.213Z,6.13
2018-12-26T02:12:19.209Z,6.09
2018-12-26T02:13:19.192Z,6.16
2018-12-26T02:14:19.181Z,6.14
2018-12-26T02:15:19.170Z,6.18
2018-12-26T02:16:19.158Z,6.11
2018-12-26T02:17:19.147Z,6.16
2018-12-26T02:18:19.137Z,6.10
2018-12-26T02:19:19.125Z,6.13
2018-12-26T02:20:19.114Z,6.16
2018-12-26T02:21:19.104Z,6.11
2018-12-26T02:22:19.094Z,6.14
2018-12-26T02:23:19.081Z,6.19
2018-12-26T02:24:19.069Z,6.07
2018-12-26T02:25:19.059Z,6.13
2018-12-26T02:26:19.048Z,6.09
2018-12-26T02:27:19.038Z,6.14
2018-12-26T02:28:19.026Z,6.07
2018-12-26T02:29:19.016Z,6.11
2018-12-26T02:30:19.007Z,6.10
2018-12-26T02:31:18.994Z,6.13
2018-12-26T02:32:18.981Z,6.10
2018-12-26T02:33:18.971Z,6.13
2018-12-26T02:34:18.959Z,6.07
2018-12-26T02:35:18.953Z,6.11
2018-12-26T02:36:18.996Z,6.07
2018-12-26T02:37:18.926Z,6.07
2018-12-26T02:38:18.915Z,6.10
2018-12-26T02:39:18.906Z,6.10
2018-12-26T02:40:18.894Z,6.07
2018-12-26T02:41:18.886Z,6.10
2018-12-26T02:42:18.877Z,5.98
2018-12-26T02:43:18.861Z,6.10
2018-12-26T02:44:18.849Z,6.11
2018-12-26T02:45:18.842Z,6.06
2018-12-26T02:46:18.830Z,6.06
2018-12-26T02:47:18.816Z,6.10
2018-12-26T02:48:18.812Z,6.11
2018-12-26T02:49:18.795Z,6.07
2018-12-26T02:50:18.786Z,6.10
2018-12-26T02:51:18.772Z,6.11
2018-12-26T02:52:18.773Z,6.10
2018-12-26T02:53:18.750Z,6.06
2018-12-26T02:54:18.739Z,6.09
2018-12-26T02:55:18.731Z,6.09
2018-12-26T02:56:18.720Z,6.09
2018-12-26T02:57:18.733Z,6.09
2018-12-26T02:58:18.695Z,6.07
2018-12-26T02:59:18.684Z,6.09
2018-12-26T03:00:18.673Z,6.07
2018-12-26T03:01:18.670Z,6.11
2018-12-26T03:02:18.651Z,6.07
2018-12-26T03:03:18.644Z,6.03
2018-12-26T03:04:18.629Z,5.96
2018-12-26T03:05:18.621Z,6.01
2018-12-26T03:06:18.606Z,6.09
2018-12-26T03:07:36.731Z,6.04
2018-12-26T03:09:00.136Z,6.09
2018-12-26T03:10:00.178Z,5.95
2018-12-26T03:11:41.662Z,5.95
2018-12-26T03:12:41.645Z,6.06
2018-12-26T03:14:23.700Z,6.10
2018-12-26T03:15:41.800Z,5.98
2018-12-26T03:17:05.967Z,6.06
2018-12-26T03:18:05.691Z,6.06
2018-12-26T03:19:05.681Z,6.11
2018-12-26T03:20:05.677Z,6.07
2018-12-26T03:21:05.656Z,5.93
2018-12-26T03:22:05.758Z,6.06
2018-12-26T03:23:05.635Z,6.04
2018-12-26T03:24:05.632Z,6.07
2018-12-26T03:25:05.716Z,6.03
2018-12-26T03:26:05.601Z,6.09
2018-12-26T03:27:05.592Z,6.07
2018-12-26T03:28:05.581Z,6.09
2018-12-26T03:29:05.571Z,6.09
2018-12-26T03:30:05.617Z,5.98
2018-12-26T03:31:05.563Z,6.06
2018-12-26T03:32:05.561Z,6.07
2018-12-26T03:33:05.545Z,6.10
2018-12-26T03:34:05.516Z,6.04
2018-12-26T03:35:05.503Z,6.09
2018-12-26T03:36:05.491Z,6.07
2018-12-26T03:37:05.489Z,6.06
2018-12-26T03:38:05.474Z,6.07
2018-12-26T03:39:05.460Z,6.00
2018-12-26T03:40:05.450Z,6.00
2018-12-26T03:41:05.437Z,6.04
2018-12-26T03:42:05.427Z,6.06
2018-12-26T03:43:05.415Z,6.04
2018-12-26T03:44:05.405Z,6.01
2018-12-26T03:45:05.393Z,6.00
2018-12-26T03:46:05.395Z,6.03
2018-12-26T03:47:05.376Z,5.93
2018-12-26T03:48:05.363Z,5.98
2018-12-26T03:49:05.352Z,6.00
2018-12-26T03:50:05.338Z,6.06
2018-12-26T03:51:05.327Z,6.04
2018-12-26T03:52:05.326Z,6.04
2018-12-26T03:53:05.307Z,6.07
2018-12-26T03:54:05.294Z,6.06
2018-12-26T03:55:05.294Z,6.03
2018-12-26T03:56:05.272Z,6.01
2018-12-26T03:57:06.207Z,6.04
2018-12-26T03:58:05.254Z,6.06
2018-12-26T03:59:05.248Z,6.03
2018-12-26T04:00:05.230Z,6.01
2018-12-26T04:01:05.218Z,6.04
2018-12-26T04:02:05.207Z,6.03
2018-12-26T04:03:05.203Z,6.10
2018-12-26T04:04:05.186Z,6.06
2018-12-26T04:05:05.177Z,6.01
2018-12-26T04:06:05.171Z,6.03
2018-12-26T04:07:05.174Z,6.04
2018-12-26T04:08:05.144Z,6.01
2018-12-26T04:09:05.132Z,6.04
2018-12-26T04:10:05.135Z,6.03
2018-12-26T04:11:05.116Z,6.06
2018-12-26T04:12:05.095Z,6.03
2018-12-26T04:13:05.090Z,6.07
2018-12-26T04:14:05.076Z,6.03
2018-12-26T04:15:05.066Z,6.04
2018-12-26T04:16:05.056Z,6.03
2018-12-26T04:17:05.047Z,6.01
2018-12-26T04:18:05.036Z,6.06
2018-12-26T04:19:05.022Z,6.03
2018-12-26T04:20:05.009Z,6.01
2018-12-26T04:21:04.996Z,5.98
2018-12-26T04:22:04.992Z,6.07
2018-12-26T04:23:04.985Z,6.01
2018-12-26T04:24:04.964Z,6.04
2018-12-26T04:25:04.953Z,6.03
2018-12-26T04:26:04.944Z,6.03
2018-12-26T04:27:04.931Z,6.01
2018-12-26T04:28:04.925Z,6.09
2018-12-26T04:29:04.910Z,6.06
2018-12-26T04:30:04.898Z,6.09
2018-12-26T04:31:04.887Z,6.03
2018-12-26T04:32:04.876Z,6.03
2018-12-26T04:33:04.865Z,6.10
2018-12-26T04:34:04.854Z,6.01
2018-12-26T04:35:04.844Z,6.03
2018-12-26T04:36:04.834Z,6.01
2018-12-26T04:37:04.822Z,6.03
2018-12-26T04:38:04.811Z,6.04
2018-12-26T04:39:04.799Z,6.03
2018-12-26T04:40:04.789Z,6.04
2018-12-26T04:41:04.777Z,6.03
2018-12-26T04:42:04.766Z,5.96
2018-12-26T04:43:04.755Z,6.04
2018-12-26T04:44:04.743Z,6.03
2018-12-26T04:45:04.734Z,5.91
2018-12-26T04:46:04.721Z,5.88
2018-12-26T04:47:04.711Z,5.91
2018-12-26T04:48:04.699Z,6.01
2018-12-26T04:49:04.690Z,6.00
2018-12-26T04:50:04.680Z,5.98
2018-12-26T04:51:04.666Z,5.93
2018-12-26T04:52:04.662Z,6.06
2018-12-26T04:53:04.645Z,5.96
2018-12-26T04:54:04.638Z,5.89
2018-12-26T04:55:04.624Z,5.92
2018-12-26T04:56:04.611Z,6.00
2018-12-26T04:57:04.602Z,5.96
2018-12-26T04:58:04.592Z,6.01
2018-12-26T04:59:04.583Z,6.03
2018-12-26T05:00:04.569Z,5.95
2018-12-26T05:01:04.558Z,6.00
2018-12-26T05:02:04.545Z,5.93
2018-12-26T05:03:04.537Z,6.00
2018-12-26T05:04:04.528Z,5.98
2018-12-26T05:05:04.513Z,5.91
2018-12-26T05:06:04.505Z,5.98
2018-12-26T05:07:04.494Z,6.04
2018-12-26T05:08:04.485Z,6.01
2018-12-26T05:09:04.477Z,6.01
2018-12-26T05:10:04.457Z,5.91
2018-12-26T05:11:04.448Z,6.00
2018-12-26T05:12:05.729Z,5.96
2018-12-26T05:13:04.426Z,5.92
2018-12-26T05:14:04.414Z,5.96
2018-12-26T05:15:04.402Z,5.93
2018-12-26T05:16:04.390Z,5.98
2018-12-26T05:17:04.380Z,5.96
2018-12-26T05:18:04.369Z,5.91
2018-12-26T05:19:04.358Z,5.93
2018-12-26T05:20:04.347Z,5.93
2018-12-26T05:21:04.339Z,5.92
2018-12-26T05:22:04.329Z,5.96
2018-12-26T05:23:04.314Z,5.89
2018-12-26T05:24:04.302Z,5.96
2018-12-26T05:25:04.294Z,5.89
2018-12-26T05:26:04.285Z,5.88
2018-12-26T05:27:04.273Z,5.96
2018-12-26T05:28:04.270Z,5.93
2018-12-26T05:29:04.249Z,5.91
2018-12-26T05:30:04.238Z,5.98
2018-12-26T05:31:04.229Z,5.92
2018-12-26T05:32:04.214Z,5.89
2018-12-26T05:33:04.204Z,5.92
2018-12-26T05:34:04.193Z,5.91
2018-12-26T05:35:04.182Z,5.96
2018-12-26T05:36:04.173Z,5.93
2018-12-26T05:37:04.161Z,5.89
2018-12-26T05:38:04.150Z,5.91
2018-12-26T05:39:04.140Z,5.89
2018-12-26T05:40:04.130Z,5.89
2018-12-26T05:41:04.116Z,5.93
2018-12-26T05:42:04.107Z,5.92
2018-12-26T05:43:04.094Z,5.88
2018-12-26T05:44:04.083Z,5.88
2018-12-26T05:45:04.072Z,5.93
2018-12-26T05:46:04.061Z,5.96
2018-12-26T05:47:04.050Z,5.92
2018-12-26T05:48:04.038Z,5.96
2018-12-26T05:49:04.027Z,5.85
2018-12-26T05:50:04.016Z,6.00
2018-12-26T05:51:04.007Z,6.01
2018-12-26T05:52:03.997Z,5.96
2018-12-26T05:53:03.984Z,5.91
2018-12-26T05:54:03.974Z,5.85
2018-12-26T05:55:03.961Z,5.91
2018-12-26T05:56:03.952Z,5.85
2018-12-26T05:57:03.940Z,5.83
2018-12-26T05:58:04.017Z,5.88
2018-12-26T05:59:03.921Z,5.89
2018-12-26T06:00:03.908Z,5.88
2018-12-26T06:01:03.895Z,5.86
2018-12-26T06:02:03.886Z,5.86
2018-12-26T06:03:03.873Z,5.85
2018-12-26T06:04:03.867Z,5.88
2018-12-26T06:05:03.851Z,5.88
2018-12-26T06:06:03.843Z,5.82
2018-12-26T06:07:03.830Z,5.88
2018-12-26T06:08:03.819Z,5.88
2018-12-26T06:09:03.807Z,5.83
2018-12-26T06:10:03.797Z,5.88
2018-12-26T06:11:03.790Z,5.82
2018-12-26T06:12:03.774Z,5.82
2018-12-26T06:13:03.763Z,5.83
2018-12-26T06:14:03.752Z,5.81
2018-12-26T06:15:03.742Z,5.78
2018-12-26T06:16:03.730Z,5.83
2018-12-26T06:17:03.718Z,5.81
2018-12-26T06:18:03.708Z,5.81
2018-12-26T06:19:03.696Z,5.83
2018-12-26T06:20:03.688Z,5.86
2018-12-26T06:21:03.675Z,5.82
2018-12-26T06:22:03.664Z,5.82
2018-12-26T06:23:03.653Z,5.82
2018-12-26T06:24:03.642Z,5.83
2018-12-26T06:25:03.632Z,5.82
2018-12-26T06:26:03.621Z,5.83
2018-12-26T06:27:03.608Z,5.81
2018-12-26T06:28:03.599Z,5.73
2018-12-26T06:29:03.587Z,5.78
2018-12-26T06:30:03.580Z,5.83
2018-12-26T06:31:03.564Z,5.68
2018-12-26T06:32:03.554Z,5.75
2018-12-26T06:33:03.544Z,5.73
2018-12-26T06:34:03.531Z,5.74
2018-12-26T06:35:03.522Z,5.77
2018-12-26T06:36:03.509Z,5.74
2018-12-26T06:37:03.498Z,5.70
2018-12-26T06:38:03.492Z,5.70
2018-12-26T06:39:03.476Z,5.67
2018-12-26T06:40:03.465Z,5.68
2018-12-26T06:41:03.457Z,5.73
2018-12-26T06:42:03.444Z,5.73
2018-12-26T06:43:03.434Z,5.73
2018-12-26T06:44:03.422Z,5.68
2018-12-26T06:45:03.411Z,5.73
2018-12-26T06:46:03.399Z,5.68
2018-12-26T06:47:03.473Z,5.73
2018-12-26T06:48:03.377Z,5.73
2018-12-26T06:49:03.467Z,5.68
2018-12-26T06:50:03.357Z,5.68
2018-12-26T06:51:03.343Z,5.68
2018-12-26T06:52:03.333Z,5.71
2018-12-26T06:53:03.324Z,5.63
2018-12-26T06:54:03.312Z,5.71
2018-12-26T06:55:03.299Z,5.71
2018-12-26T06:56:03.292Z,5.67
2018-12-26T06:57:03.278Z,5.67
2018-12-26T06:58:03.268Z,5.73
2018-12-26T06:59:03.255Z,5.74
2018-12-26T07:00:03.249Z,5.71
2018-12-26T07:01:03.236Z,5.70
2018-12-26T07:02:03.224Z,5.70
2018-12-26T07:03:03.212Z,5.75
2018-12-26T07:04:03.211Z,5.64
2018-12-26T07:05:03.191Z,5.70
2018-12-26T07:06:03.180Z,5.75
2018-12-26T07:07:03.171Z,5.68
2018-12-26T07:08:03.158Z,5.73
2018-12-26T07:09:03.150Z,5.66
2018-12-26T07:10:03.135Z,5.66
2018-12-26T07:11:03.124Z,5.73
2018-12-26T07:12:03.125Z,5.70
2018-12-26T07:13:03.105Z,5.71
2018-12-26T07:14:03.092Z,5.71
2018-12-26T07:15:03.081Z,5.64
2018-12-26T07:16:03.071Z,5.57
2018-12-26T07:17:03.064Z,5.59
2018-12-26T07:18:03.049Z,5.70
2018-12-26T07:19:03.038Z,5.64
2018-12-26T07:20:03.030Z,5.64
2018-12-26T07:21:03.083Z,5.59
2018-12-26T07:22:03.083Z,5.57
2018-12-26T07:23:02.996Z,5.60
2018-12-26T07:24:02.982Z,5.63
2018-12-26T07:25:02.971Z,5.59
2018-12-26T07:26:02.959Z,5.68
2018-12-26T07:27:02.949Z,5.63
2018-12-26T07:28:08.986Z,5.60
2018-12-26T07:29:03.926Z,5.59
2018-12-26T07:30:02.917Z,5.67
2018-12-26T07:31:02.905Z,5.60
2018-12-26T07:32:02.894Z,5.60
2018-12-26T07:33:02.887Z,5.57
2018-12-26T07:34:03.465Z,5.63
2018-12-26T07:35:02.863Z,5.59
2018-12-26T07:36:02.850Z,5.60
2018-12-26T07:37:02.837Z,5.70
2018-12-26T07:38:02.827Z,5.57
2018-12-26T07:39:02.816Z,5.68
2018-12-26T07:40:02.804Z,5.67
2018-12-26T07:41:02.793Z,5.71
2018-12-26T07:42:02.783Z,5.64
2018-12-26T07:43:02.771Z,5.59
2018-12-26T07:44:02.761Z,5.67
2018-12-26T07:45:02.824Z,5.67
2018-12-26T07:46:02.738Z,5.64
2018-12-26T07:47:02.729Z,5.74
2018-12-26T07:48:02.717Z,5.56
2018-12-26T07:49:02.705Z,5.66
2018-12-26T07:50:02.695Z,5.60
2018-12-26T07:51:02.683Z,5.63
2018-12-26T07:52:02.674Z,5.57
2018-12-26T07:53:02.661Z,5.56
2018-12-26T07:54:02.651Z,5.53
2018-12-26T07:55:02.639Z,5.64
2018-12-26T07:56:02.628Z,5.52
2018-12-26T07:57:02.618Z,5.60
2018-12-26T07:58:02.619Z,5.52
2018-12-26T07:59:02.597Z,5.60
2018-12-26T08:00:02.584Z,5.66
2018-12-26T08:01:03.101Z,5.56
2018-12-26T08:02:02.563Z,5.64
2018-12-26T08:03:02.552Z,5.56
2018-12-26T08:04:02.547Z,5.67
2018-12-26T08:05:02.531Z,5.60
2018-12-26T08:06:02.519Z,5.60
2018-12-26T08:07:02.507Z,5.70
2018-12-26T08:08:02.496Z,5.66
2018-12-26T08:09:02.486Z,5.66
2018-12-26T08:10:02.541Z,5.64
2018-12-26T08:11:02.462Z,5.71
2018-12-26T08:12:02.452Z,5.67
2018-12-26T08:13:02.443Z,5.70
2018-12-26T08:14:02.430Z,5.70
2018-12-26T08:15:10.200Z,5.70
2018-12-26T08:16:03.406Z,5.66
2018-12-26T08:17:02.397Z,5.73
2018-12-26T08:18:02.387Z,5.73
2018-12-26T08:19:02.375Z,5.67
2018-12-26T08:20:02.368Z,5.67
2018-12-26T08:21:02.366Z,5.74
2018-12-26T08:22:02.342Z,5.67
2018-12-26T08:23:02.332Z,5.64
2018-12-26T08:24:02.321Z,5.67
2018-12-26T08:25:02.309Z,5.74
2018-12-26T08:26:02.298Z,5.71
2018-12-26T08:27:02.288Z,5.67
2018-12-26T08:28:02.277Z,5.67
2018-12-26T08:29:02.266Z,5.70
2018-12-26T08:30:02.254Z,5.67
2018-12-26T08:31:02.245Z,5.66
2018-12-26T08:32:02.231Z,5.73
2018-12-26T08:33:02.221Z,5.67
2018-12-26T08:34:02.209Z,5.68
2018-12-26T08:35:02.199Z,5.70
2018-12-26T08:36:02.191Z,5.64
2018-12-26T08:37:02.179Z,5.78
2018-12-26T08:38:02.167Z,5.64
2018-12-26T08:39:02.155Z,5.68
2018-12-26T08:40:02.168Z,5.71
2018-12-26T08:41:02.132Z,5.82
2018-12-26T08:42:02.121Z,5.68
2018-12-26T08:43:02.111Z,5.74
2018-12-26T08:44:02.099Z,5.73
2018-12-26T08:45:02.088Z,5.73
2018-12-26T08:46:02.078Z,5.73
2018-12-26T08:47:02.067Z,5.74
2018-12-26T08:48:02.056Z,5.68
2018-12-26T08:49:02.044Z,5.73
2018-12-26T08:50:02.035Z,5.75
2018-12-26T08:51:02.023Z,5.74
2018-12-26T08:52:02.011Z,5.83
2018-12-26T08:53:02.002Z,5.74
2018-12-26T08:54:01.998Z,5.81
2018-12-26T08:55:01.984Z,5.75
2018-12-26T08:56:01.969Z,5.77
2018-12-26T08:57:01.958Z,5.77
2018-12-26T08:58:01.947Z,5.71
2018-12-26T08:59:01.934Z,5.85
2018-12-26T09:00:01.923Z,5.75
2018-12-26T09:01:01.914Z,5.81
2018-12-26T09:02:01.901Z,5.82
2018-12-26T09:03:01.895Z,5.74
2018-12-26T09:04:01.879Z,5.85
2018-12-26T09:05:01.871Z,5.75
2018-12-26T09:06:01.857Z,5.81
2018-12-26T09:07:01.847Z,5.85
2018-12-26T09:08:01.834Z,5.78
2018-12-26T09:09:01.825Z,5.81
2018-12-26T09:10:01.817Z,5.83
2018-12-26T09:11:01.801Z,5.81
2018-12-26T09:12:01.791Z,5.81
2018-12-26T09:13:01.780Z,5.83
2018-12-26T09:14:01.771Z,5.81
2018-12-26T09:15:01.757Z,5.83
2018-12-26T09:16:01.747Z,5.85
2018-12-26T09:17:01.735Z,5.86
2018-12-26T09:18:01.726Z,5.86
2018-12-26T09:19:01.713Z,5.85
2018-12-26T09:20:01.702Z,5.82
2018-12-26T09:21:01.691Z,5.85
2018-12-26T09:22:01.679Z,5.86
2018-12-26T09:23:01.669Z,5.92
2018-12-26T09:24:01.659Z,6.00
2018-12-26T09:25:01.647Z,5.93
2018-12-26T09:26:01.636Z,5.96
2018-12-26T09:27:01.626Z,6.00
2018-12-26T09:28:01.615Z,5.91
2018-12-26T09:29:01.602Z,6.03
2018-12-26T09:30:01.592Z,5.91
2018-12-26T09:31:01.582Z,5.95
2018-12-26T09:32:01.574Z,5.98
2018-12-26T09:33:01.558Z,5.93
2018-12-26T09:34:01.547Z,5.98
2018-12-26T09:35:01.544Z,5.95
2018-12-26T09:36:01.526Z,6.00
2018-12-26T09:37:01.514Z,5.93
2018-12-26T09:38:01.503Z,5.93
2018-12-26T09:39:01.493Z,5.91
2018-12-26T09:40:01.482Z,5.92
2018-12-26T09:41:01.470Z,5.93
2018-12-26T09:42:01.460Z,5.95
2018-12-26T09:43:01.450Z,5.92
2018-12-26T09:44:01.438Z,5.95
2018-12-26T09:45:01.426Z,5.92
2018-12-26T09:46:01.415Z,5.92
2018-12-26T09:47:01.407Z,5.96
2018-12-26T09:48:01.393Z,6.04
2018-12-26T09:49:01.389Z,6.04
2018-12-26T09:50:01.371Z,6.00
2018-12-26T09:51:01.361Z,6.00
2018-12-26T09:52:01.350Z,5.91
2018-12-26T09:53:01.340Z,6.04
2018-12-26T09:54:01.357Z,6.06
2018-12-26T09:55:01.337Z,6.01
2018-12-26T09:56:01.307Z,6.03
2018-12-26T09:57:01.296Z,6.03
2018-12-26T09:58:01.282Z,6.06
2018-12-26T09:59:01.272Z,6.04
2018-12-26T10:00:01.262Z,6.04
2018-12-26T10:01:01.252Z,6.06
2018-12-26T10:02:01.239Z,6.03
2018-12-26T10:03:01.228Z,6.01
2018-12-26T10:04:01.217Z,6.06
2018-12-26T10:05:01.206Z,5.98
2018-12-26T10:06:01.195Z,6.04
2018-12-26T10:07:01.184Z,6.03
2018-12-26T10:08:01.173Z,6.01
2018-12-26T10:09:01.162Z,6.01
2018-12-26T10:10:01.151Z,6.10
2018-12-26T10:11:01.140Z,5.93
2018-12-26T10:12:01.132Z,5.98
2018-12-26T10:13:01.119Z,6.03
2018-12-26T10:14:01.108Z,6.06
2018-12-26T10:15:01.101Z,5.96
2018-12-26T10:16:01.084Z,6.13
2018-12-26T10:17:01.074Z,6.10
2018-12-26T10:18:01.062Z,6.00
2018-12-26T10:19:01.053Z,6.06
2018-12-26T10:20:01.045Z,6.11
2018-12-26T10:21:01.030Z,6.10
2018-12-26T10:22:01.018Z,6.10
2018-12-26T10:23:01.010Z,6.19
2018-12-26T10:24:00.998Z,6.16
2018-12-26T10:25:00.984Z,6.16
2018-12-26T10:26:00.975Z,6.18
2018-12-26T10:27:00.963Z,6.06
2018-12-26T10:28:00.954Z,6.04
2018-12-26T10:29:01.270Z,6.09
2018-12-26T10:30:00.934Z,6.06
2018-12-26T10:31:00.920Z,6.09
2018-12-26T10:32:00.912Z,6.10
2018-12-26T10:33:00.899Z,6.10
2018-12-26T10:34:00.886Z,6.09
2018-12-26T10:35:00.911Z,6.09
2018-12-26T10:36:00.870Z,6.03
2018-12-26T10:37:00.854Z,6.10
2018-12-26T10:38:00.842Z,6.11
2018-12-26T10:39:00.832Z,6.10
2018-12-26T10:40:00.822Z,6.10
2018-12-26T10:41:00.809Z,6.13
2018-12-26T10:42:00.799Z,6.10
2018-12-26T10:43:00.787Z,6.22
2018-12-26T10:44:00.776Z,6.11
2018-12-26T10:45:00.815Z,6.26
2018-12-26T10:46:00.754Z,6.14
2018-12-26T10:47:00.743Z,6.14
2018-12-26T10:48:00.731Z,6.09
2018-12-26T10:49:00.721Z,6.11
2018-12-26T10:50:00.710Z,6.14
2018-12-26T10:51:00.699Z,6.29
2018-12-26T10:52:00.687Z,6.22
2018-12-26T10:53:00.677Z,6.21
2018-12-26T10:54:00.665Z,6.32
2018-12-26T10:55:00.655Z,6.25
2018-12-26T10:56:00.643Z,6.30
2018-12-26T10:57:00.637Z,6.33
2018-12-26T10:58:00.621Z,6.32
2018-12-26T10:59:00.610Z,6.30
2018-12-26T11:00:00.599Z,6.33
2018-12-26T11:01:00.590Z,6.30
2018-12-26T11:02:00.582Z,6.30
2018-12-26T11:03:00.566Z,6.30
2018-12-26T11:04:00.556Z,6.30
2018-12-26T11:05:00.544Z,6.29
2018-12-26T11:06:00.533Z,6.29
2018-12-26T11:07:00.524Z,6.22
2018-12-26T11:08:00.512Z,6.28
2018-12-26T11:09:00.501Z,6.19
2018-12-26T11:10:00.490Z,6.25
2018-12-26T11:11:00.479Z,6.22
2018-12-26T11:12:00.468Z,6.29
2018-12-26T11:13:00.458Z,6.25
2018-12-26T11:14:00.449Z,6.22
2018-12-26T11:15:00.435Z,6.32
2018-12-26T11:16:00.427Z,6.22
2018-12-26T11:17:00.414Z,6.28
2018-12-26T11:18:00.408Z,6.14
2018-12-26T11:19:00.391Z,6.16
2018-12-26T11:20:00.381Z,6.21
2018-12-26T11:21:00.369Z,6.22
2018-12-26T11:22:00.358Z,6.21
2018-12-26T11:23:00.347Z,6.21
2018-12-26T11:24:00.336Z,6.18
2018-12-26T11:25:00.325Z,6.13
2018-12-26T11:26:00.314Z,6.21
2018-12-26T11:27:00.304Z,6.19
2018-12-26T11:28:00.293Z,6.11
2018-12-26T11:29:00.281Z,6.13
2018-12-26T11:30:00.271Z,6.18
2018-12-26T11:31:00.259Z,6.21
2018-12-26T11:32:00.249Z,6.21
2018-12-26T11:33:01.397Z,6.28
2018-12-26T11:34:00.226Z,6.16
2018-12-26T11:35:00.273Z,6.25
2018-12-26T11:36:00.204Z,6.21
2018-12-26T11:37:00.195Z,6.26
2018-12-26T11:38:00.215Z,6.21
2018-12-26T11:39:00.171Z,6.14
2018-12-26T11:40:00.160Z,6.21
2018-12-26T11:41:00.149Z,6.14
2018-12-26T11:42:00.138Z,6.09
2018-12-26T11:43:00.126Z,6.16
2018-12-26T11:44:00.115Z,6.22
2018-12-26T11:45:00.123Z,6.18
2018-12-26T11:46:00.099Z,6.18
2018-12-26T11:47:00.098Z,6.25
2018-12-26T11:48:00.073Z,6.14
2018-12-26T11:49:00.064Z,6.18
2018-12-26T11:50:00.049Z,6.18
2018-12-26T11:51:00.039Z,6.18
2018-12-26T11:52:00.028Z,6.16
2018-12-26T11:53:00.020Z,6.14
2018-12-26T11:54:00.007Z,6.21
2018-12-26T11:54:59.994Z,6.25
2018-12-26T11:55:59.984Z,6.16
2018-12-26T11:56:59.973Z,6.18
2018-12-26T11:57:59.962Z,6.29
2018-12-26T11:58:59.952Z,6.16
2018-12-26T11:59:59.939Z,6.21
2018-12-26T12:00:59.942Z,6.22
2018-12-26T12:01:59.916Z,6.28
2018-12-26T12:02:59.906Z,6.19
2018-12-26T12:03:59.895Z,6.29
2018-12-26T12:04:59.886Z,6.28
2018-12-26T12:05:59.874Z,6.29
2018-12-26T12:06:59.869Z,6.19
2018-12-26T12:07:59.851Z,6.28
2018-12-26T12:08:59.839Z,6.30
2018-12-26T12:09:59.834Z,6.21
2018-12-26T12:10:59.818Z,6.22
2018-12-26T12:11:59.808Z,6.26
2018-12-26T12:12:59.796Z,6.21
2018-12-26T12:13:59.786Z,6.13
2018-12-26T12:14:59.791Z,6.18
2018-12-26T12:15:59.763Z,6.21
2018-12-26T12:16:59.753Z,6.22
2018-12-26T12:17:59.741Z,6.13
2018-12-26T12:18:59.730Z,6.11
2018-12-26T12:19:59.718Z,6.09
2018-12-26T12:20:59.708Z,6.19
2018-12-26T12:21:59.697Z,6.18
2018-12-26T12:22:59.693Z,6.18
2018-12-26T12:23:59.682Z,6.13
2018-12-26T12:24:59.666Z,6.18
2018-12-26T12:25:59.653Z,6.18
2018-12-26T12:26:59.643Z,6.13
2018-12-26T12:27:59.630Z,6.13
2018-12-26T12:28:59.620Z,6.13
2018-12-26T12:29:59.609Z,6.18
2018-12-26T12:30:59.599Z,6.22
2018-12-26T12:31:59.588Z,6.19
2018-12-26T12:32:59.575Z,6.21
2018-12-26T12:33:59.566Z,6.14
2018-12-26T12:34:59.556Z,6.09
2018-12-26T12:35:59.543Z,6.16
2018-12-26T12:36:59.533Z,6.18
2018-12-26T12:37:59.522Z,6.10
2018-12-26T12:38:59.509Z,6.10
2018-12-26T12:39:59.499Z,6.13
2018-12-26T12:40:59.488Z,6.07
2018-12-26T12:41:59.478Z,6.26
2018-12-26T12:42:59.466Z,6.13
2018-12-26T12:43:59.454Z,6.10
2018-12-26T12:44:59.443Z,6.13
2018-12-26T12:45:59.433Z,6.10
2018-12-26T12:46:59.422Z,6.16
2018-12-26T12:47:59.412Z,6.14
2018-12-26T12:48:59.400Z,6.11
2018-12-26T12:49:59.390Z,6.22
2018-12-26T12:50:59.378Z,6.14
2018-12-26T12:51:59.368Z,6.10
2018-12-26T12:52:59.355Z,6.06
2018-12-26T12:53:59.345Z,6.13
2018-12-26T12:54:59.338Z,6.06
2018-12-26T12:55:59.322Z,6.11
2018-12-26T12:56:59.312Z,6.14
2018-12-26T12:57:59.300Z,6.09
2018-12-26T12:58:59.290Z,6.09
2018-12-26T12:59:59.278Z,6.16
2018-12-26T13:00:59.270Z,6.09
2018-12-26T13:01:59.256Z,6.11
2018-12-26T13:03:00.616Z,6.13
2018-12-26T13:03:59.235Z,6.04
2018-12-26T13:04:59.224Z,6.09
2018-12-26T13:05:59.213Z,6.13
2018-12-26T13:06:59.214Z,6.13
2018-12-26T13:07:59.191Z,6.07
2018-12-26T13:08:59.179Z,6.13
2018-12-26T13:09:59.168Z,6.09
2018-12-26T13:10:59.159Z,6.10
2018-12-26T13:11:59.146Z,5.96
2018-12-26T13:12:59.135Z,6.10
2018-12-26T13:13:59.125Z,6.11
2018-12-26T13:14:59.113Z,6.14
2018-12-26T13:15:59.103Z,6.09
2018-12-26T13:16:59.096Z,6.04
2018-12-26T13:17:59.082Z,6.10
2018-12-26T13:18:59.073Z,6.07
2018-12-26T13:20:01.829Z,6.14
2018-12-26T13:20:59.046Z,6.09
2018-12-26T13:21:59.035Z,6.06
2018-12-26T13:22:59.024Z,6.14
2018-12-26T13:23:59.013Z,6.14
2018-12-26T13:24:59.004Z,6.09